sensor_id;sensor_type;location;lat;lon;timestamp;pressure;altitude;pressure_sealevel;temperature;humidity
59435;BME280;45241;49.768;8.636;2023-04-16T00:00:35;100236.63;;;11.41;100.00
59435;BME280;45241;49.768;8.636;2023-04-16T00:03:00;100242.81;;;11.42;100.00
59435;BME280;45241;49.768;8.636;2023-04-16T00:05:26;100243.31;;;11.31;100.00
59435;BME280;45241;49.768;8.636;2023-04-16T00:07:51;100231.00;;;11.36;100.00
59435;BME280;45241;49.768;8.636;2023-04-16T00:10:16;100240.53;;;11.39;100.00
59435;BME280;45241;49.768;8.636;2023-04-16T00:12:42;100238.81;;;11.31;100.00
59435;BME280;45241;49.768;8.636;2023-04-16T00:15:07;100243.22;;;11.39;100.00
59435;BME280;45241;49.768;8.636;2023-04-16T00:17:32;100237.78;;;11.32;100.00
59435;BME280;45241;49.768;8.636;2023-04-16T00:19:57;100237.84;;;11.39;100.00
59435;BME280;45241;49.768;8.636;2023-04-16T00:22:23;100242.31;;;11.32;100.00
59435;BME280;45241;49.768;8.636;2023-04-16T00:24:48;100238.59;;;11.33;100.00
59435;BME280;45241;49.768;8.636;2023-04-16T00:27:13;100241.50;;;11.31;100.00
59435;BME280;45241;49.768;8.636;2023-04-16T00:29:38;100243.78;;;11.34;100.00
59435;BME280;45241;49.768;8.636;2023-04-16T00:32:04;100243.97;;;11.33;100.00
59435;BME280;45241;49.768;8.636;2023-04-16T00:34:29;100247.25;;;11.07;100.00
59435;BME280;45241;49.768;8.636;2023-04-16T00:36:55;100240.88;;;11.08;100.00
59435;BME280;45241;49.768;8.636;2023-04-16T00:39:20;100247.84;;;11.30;100.00
59435;BME280;45241;49.768;8.636;2023-04-16T00:41:45;100243.91;;;11.26;100.00
59435;BME280;45241;49.768;8.636;2023-04-16T00:44:10;100249.78;;;11.36;100.00
59435;BME280;45241;49.768;8.636;2023-04-16T00:46:35;100247.69;;;11.32;100.00
59435;BME280;45241;49.768;8.636;2023-04-16T00:49:01;100249.91;;;11.28;100.00
59435;BME280;45241;49.768;8.636;2023-04-16T00:51:26;100256.38;;;11.34;100.00
59435;BME280;45241;49.768;8.636;2023-04-16T00:53:52;100249.16;;;11.34;100.00
59435;BME280;45241;49.768;8.636;2023-04-16T00:56:17;100256.94;;;11.29;100.00
59435;BME280;45241;49.768;8.636;2023-04-16T00:58:43;100251.50;;;11.23;100.00
59435;BME280;45241;49.768;8.636;2023-04-16T01:01:08;100250.56;;;11.09;100.00
59435;BME280;45241;49.768;8.636;2023-04-16T01:03:42;100259.59;;;11.01;100.00
59435;BME280;45241;49.768;8.636;2023-04-16T01:06:07;100257.75;;;11.30;100.00
59435;BME280;45241;49.768;8.636;2023-04-16T01:08:35;100254.97;;;11.17;100.00
59435;BME280;45241;49.768;8.636;2023-04-16T01:11:00;100262.22;;;11.23;100.00
59435;BME280;45241;49.768;8.636;2023-04-16T01:13:25;100261.31;;;11.09;100.00
59435;BME280;45241;49.768;8.636;2023-04-16T01:15:51;100259.63;;;11.29;100.00
59435;BME280;45241;49.768;8.636;2023-04-16T01:18:16;100255.75;;;11.32;100.00
59435;BME280;45241;49.768;8.636;2023-04-16T01:20:42;100260.28;;;11.31;100.00
59435;BME280;45241;49.768;8.636;2023-04-16T01:23:07;100263.19;;;11.36;100.00
59435;BME280;45241;49.768;8.636;2023-04-16T01:25:33;100255.34;;;11.35;100.00
59435;BME280;45241;49.768;8.636;2023-04-16T01:27:58;100259.06;;;11.34;100.00
59435;BME280;45241;49.768;8.636;2023-04-16T01:30:24;100262.75;;;11.33;100.00
59435;BME280;45241;49.768;8.636;2023-04-16T01:32:49;100258.16;;;11.27;100.00
59435;BME280;45241;49.768;8.636;2023-04-16T01:35:14;100265.66;;;11.31;100.00
59435;BME280;45241;49.768;8.636;2023-04-16T01:37:40;100262.75;;;11.33;100.00
59435;BME280;45241;49.768;8.636;2023-04-16T01:40:05;100267.66;;;11.29;100.00
59435;BME280;45241;49.768;8.636;2023-04-16T01:42:31;100269.16;;;11.32;100.00
59435;BME280;45241;49.768;8.636;2023-04-16T01:44:56;100272.00;;;11.30;100.00
59435;BME280;45241;49.768;8.636;2023-04-16T01:47:21;100269.25;;;11.24;100.00
59435;BME280;45241;49.768;8.636;2023-04-16T01:49:46;100275.66;;;11.23;100.00
59435;BME280;45241;49.768;8.636;2023-04-16T01:52:12;100269.91;;;11.26;100.00
59435;BME280;45241;49.768;8.636;2023-04-16T01:54:37;100273.09;;;11.36;100.00
59435;BME280;45241;49.768;8.636;2023-04-16T01:57:02;100275.59;;;11.37;100.00
59435;BME280;45241;49.768;8.636;2023-04-16T01:59:27;100273.88;;;11.30;100.00
59435;BME280;45241;49.768;8.636;2023-04-16T02:01:53;100278.41;;;11.29;100.00
59435;BME280;45241;49.768;8.636;2023-04-16T02:04:18;100285.50;;;11.37;100.00
59435;BME280;45241;49.768;8.636;2023-04-16T02:06:43;100282.56;;;11.32;100.00
59435;BME280;45241;49.768;8.636;2023-04-16T02:09:08;100278.47;;;11.36;100.00
59435;BME280;45241;49.768;8.636;2023-04-16T02:11:34;100282.44;;;11.40;100.00
59435;BME280;45241;49.768;8.636;2023-04-16T02:13:59;100280.88;;;11.31;100.00
59435;BME280;45241;49.768;8.636;2023-04-16T02:16:24;100283.41;;;11.32;100.00
59435;BME280;45241;49.768;8.636;2023-04-16T02:18:50;100285.63;;;11.29;100.00
59435;BME280;45241;49.768;8.636;2023-04-16T02:21:15;100277.44;;;11.37;100.00
59435;BME280;45241;49.768;8.636;2023-04-16T02:23:40;100281.16;;;11.36;100.00
59435;BME280;45241;49.768;8.636;2023-04-16T02:26:06;100280.72;;;11.32;100.00
59435;BME280;45241;49.768;8.636;2023-04-16T02:28:31;100277.56;;;11.29;100.00
59435;BME280;45241;49.768;8.636;2023-04-16T02:30:56;100286.38;;;11.23;100.00
59435;BME280;45241;49.768;8.636;2023-04-16T02:33:22;100280.72;;;11.11;100.00
59435;BME280;45241;49.768;8.636;2023-04-16T02:35:49;100274.88;;;11.29;100.00
59435;BME280;45241;49.768;8.636;2023-04-16T02:38:15;100272.75;;;10.96;100.00
59435;BME280;45241;49.768;8.636;2023-04-16T02:40:40;100281.75;;;11.10;100.00
59435;BME280;45241;49.768;8.636;2023-04-16T02:43:05;100296.81;;;11.11;100.00
59435;BME280;45241;49.768;8.636;2023-04-16T02:45:30;100298.84;;;11.30;100.00
59435;BME280;45241;49.768;8.636;2023-04-16T02:47:56;100293.28;;;11.10;100.00
59435;BME280;45241;49.768;8.636;2023-04-16T02:50:21;100290.72;;;11.24;100.00
59435;BME280;45241;49.768;8.636;2023-04-16T02:52:46;100296.63;;;11.12;100.00
59435;BME280;45241;49.768;8.636;2023-04-16T02:55:11;100291.56;;;11.24;100.00
59435;BME280;45241;49.768;8.636;2023-04-16T02:57:37;100290.78;;;11.30;100.00
59435;BME280;45241;49.768;8.636;2023-04-16T03:00:02;100290.53;;;11.25;100.00
59435;BME280;45241;49.768;8.636;2023-04-16T03:02:29;100299.50;;;11.32;100.00
59435;BME280;45241;49.768;8.636;2023-04-16T03:04:54;100294.06;;;11.26;100.00
59435;BME280;45241;49.768;8.636;2023-04-16T03:07:19;100291.63;;;11.31;100.00
59435;BME280;45241;49.768;8.636;2023-04-16T03:09:45;100306.88;;;11.02;100.00
59435;BME280;45241;49.768;8.636;2023-04-16T03:12:10;100290.38;;;11.27;100.00
59435;BME280;45241;49.768;8.636;2023-04-16T03:14:35;100299.94;;;11.36;100.00
59435;BME280;45241;49.768;8.636;2023-04-16T03:17:01;100306.47;;;11.27;100.00
59435;BME280;45241;49.768;8.636;2023-04-16T03:19:26;100297.94;;;11.23;100.00
59435;BME280;45241;49.768;8.636;2023-04-16T03:21:51;100301.72;;;11.29;100.00
59435;BME280;45241;49.768;8.636;2023-04-16T03:24:16;100297.47;;;11.34;100.00
59435;BME280;45241;49.768;8.636;2023-04-16T03:26:42;100299.88;;;11.29;100.00
59435;BME280;45241;49.768;8.636;2023-04-16T03:29:07;100300.63;;;11.23;100.00
59435;BME280;45241;49.768;8.636;2023-04-16T03:31:32;100306.19;;;11.22;100.00
59435;BME280;45241;49.768;8.636;2023-04-16T03:33:57;100308.94;;;11.28;100.00
59435;BME280;45241;49.768;8.636;2023-04-16T03:36:23;100308.44;;;11.18;100.00
59435;BME280;45241;49.768;8.636;2023-04-16T03:38:48;100306.78;;;10.96;100.00
59435;BME280;45241;49.768;8.636;2023-04-16T03:41:13;100312.34;;;11.15;100.00
59435;BME280;45241;49.768;8.636;2023-04-16T03:43:38;100315.22;;;11.14;100.00
59435;BME280;45241;49.768;8.636;2023-04-16T03:46:04;100313.22;;;11.23;100.00
59435;BME280;45241;49.768;8.636;2023-04-16T03:48:29;100310.25;;;11.32;100.00
59435;BME280;45241;49.768;8.636;2023-04-16T03:50:54;100313.75;;;11.33;100.00
59435;BME280;45241;49.768;8.636;2023-04-16T03:53:19;100313.94;;;11.31;100.00
59435;BME280;45241;49.768;8.636;2023-04-16T03:55:48;100318.53;;;11.37;100.00
59435;BME280;45241;49.768;8.636;2023-04-16T03:58:13;100317.75;;;11.22;100.00
59435;BME280;45241;49.768;8.636;2023-04-16T04:00:40;100314.69;;;11.25;100.00
59435;BME280;45241;49.768;8.636;2023-04-16T04:03:05;100313.22;;;11.23;100.00
59435;BME280;45241;49.768;8.636;2023-04-16T04:05:30;100315.47;;;11.19;100.00
59435;BME280;45241;49.768;8.636;2023-04-16T04:07:59;100315.28;;;11.21;100.00
59435;BME280;45241;49.768;8.636;2023-04-16T04:10:24;100317.56;;;11.24;100.00
59435;BME280;45241;49.768;8.636;2023-04-16T04:12:50;100319.22;;;11.25;100.00
59435;BME280;45241;49.768;8.636;2023-04-16T04:15:15;100322.13;;;11.02;100.00
59435;BME280;45241;49.768;8.636;2023-04-16T04:17:40;100329.84;;;11.11;100.00
59435;BME280;45241;49.768;8.636;2023-04-16T04:20:05;100324.53;;;11.18;100.00
59435;BME280;45241;49.768;8.636;2023-04-16T04:22:31;100328.88;;;11.19;100.00
59435;BME280;45241;49.768;8.636;2023-04-16T04:24:56;100330.06;;;11.31;100.00
59435;BME280;45241;49.768;8.636;2023-04-16T04:27:21;100342.81;;;11.29;100.00
59435;BME280;45241;49.768;8.636;2023-04-16T04:29:46;100332.59;;;11.18;100.00
59435;BME280;45241;49.768;8.636;2023-04-16T04:32:11;100340.69;;;11.25;100.00
59435;BME280;45241;49.768;8.636;2023-04-16T04:34:37;100338.66;;;11.27;100.00
59435;BME280;45241;49.768;8.636;2023-04-16T04:37:02;100348.63;;;10.90;100.00
59435;BME280;45241;49.768;8.636;2023-04-16T04:39:27;100349.00;;;10.87;100.00
59435;BME280;45241;49.768;8.636;2023-04-16T04:41:52;100348.38;;;11.06;100.00
59435;BME280;45241;49.768;8.636;2023-04-16T04:44:18;100350.94;;;11.14;100.00
59435;BME280;45241;49.768;8.636;2023-04-16T04:46:43;100346.25;;;11.23;100.00
59435;BME280;45241;49.768;8.636;2023-04-16T04:49:08;100348.69;;;11.18;100.00
59435;BME280;45241;49.768;8.636;2023-04-16T04:51:33;100358.59;;;11.18;100.00
59435;BME280;45241;49.768;8.636;2023-04-16T04:53:59;100347.06;;;11.24;100.00
59435;BME280;45241;49.768;8.636;2023-04-16T04:56:24;100353.84;;;11.20;100.00
59435;BME280;45241;49.768;8.636;2023-04-16T04:58:49;100356.97;;;11.23;100.00
59435;BME280;45241;49.768;8.636;2023-04-16T05:01:15;100360.06;;;11.20;100.00
59435;BME280;45241;49.768;8.636;2023-04-16T05:03:40;100358.91;;;11.29;100.00
59435;BME280;45241;49.768;8.636;2023-04-16T05:06:06;100359.38;;;11.33;100.00
59435;BME280;45241;49.768;8.636;2023-04-16T05:08:31;100367.16;;;11.28;100.00
59435;BME280;45241;49.768;8.636;2023-04-16T05:10:56;100367.16;;;11.28;100.00
59435;BME280;45241;49.768;8.636;2023-04-16T05:13:21;100362.00;;;11.26;100.00
59435;BME280;45241;49.768;8.636;2023-04-16T05:15:47;100373.28;;;11.22;100.00
59435;BME280;45241;49.768;8.636;2023-04-16T05:18:12;100365.88;;;11.24;100.00
59435;BME280;45241;49.768;8.636;2023-04-16T05:20:37;100368.34;;;11.25;100.00
59435;BME280;45241;49.768;8.636;2023-04-16T05:23:02;100375.84;;;11.30;100.00
59435;BME280;45241;49.768;8.636;2023-04-16T05:25:27;100376.41;;;11.25;100.00
59435;BME280;45241;49.768;8.636;2023-04-16T05:27:53;100374.56;;;11.26;100.00
59435;BME280;45241;49.768;8.636;2023-04-16T05:30:18;100388.00;;;11.26;100.00
59435;BME280;45241;49.768;8.636;2023-04-16T05:32:43;100391.03;;;11.23;100.00
59435;BME280;45241;49.768;8.636;2023-04-16T05:35:08;100385.03;;;11.21;100.00
59435;BME280;45241;49.768;8.636;2023-04-16T05:37:34;100392.69;;;11.24;100.00
59435;BME280;45241;49.768;8.636;2023-04-16T05:39:59;100391.50;;;11.26;100.00
59435;BME280;45241;49.768;8.636;2023-04-16T05:42:24;100404.72;;;11.06;100.00
59435;BME280;45241;49.768;8.636;2023-04-16T05:44:50;100406.06;;;11.17;100.00
59435;BME280;45241;49.768;8.636;2023-04-16T05:47:16;100402.16;;;11.20;100.00
59435;BME280;45241;49.768;8.636;2023-04-16T05:49:41;100411.72;;;11.07;100.00
59435;BME280;45241;49.768;8.636;2023-04-16T05:52:06;100407.78;;;11.03;100.00
59435;BME280;45241;49.768;8.636;2023-04-16T05:54:31;100405.19;;;11.31;100.00
59435;BME280;45241;49.768;8.636;2023-04-16T05:56:57;100417.19;;;11.35;100.00
59435;BME280;45241;49.768;8.636;2023-04-16T05:59:22;100418.78;;;11.30;100.00
59435;BME280;45241;49.768;8.636;2023-04-16T06:01:47;100420.19;;;11.26;100.00
59435;BME280;45241;49.768;8.636;2023-04-16T06:04:12;100423.59;;;11.34;100.00
59435;BME280;45241;49.768;8.636;2023-04-16T06:06:37;100416.81;;;11.38;100.00
59435;BME280;45241;49.768;8.636;2023-04-16T06:09:04;100419.88;;;11.35;100.00
59435;BME280;45241;49.768;8.636;2023-04-16T06:11:29;100422.13;;;11.32;100.00
59435;BME280;45241;49.768;8.636;2023-04-16T06:13:54;100405.91;;;11.40;100.00
59435;BME280;45241;49.768;8.636;2023-04-16T06:16:19;100426.56;;;11.25;100.00
59435;BME280;45241;49.768;8.636;2023-04-16T06:18:45;100420.63;;;11.29;100.00
59435;BME280;45241;49.768;8.636;2023-04-16T06:21:10;100418.50;;;11.25;100.00
59435;BME280;45241;49.768;8.636;2023-04-16T06:23:36;100422.88;;;11.26;100.00
59435;BME280;45241;49.768;8.636;2023-04-16T06:26:01;100422.78;;;11.34;100.00
59435;BME280;45241;49.768;8.636;2023-04-16T06:28:26;100429.16;;;11.33;100.00
59435;BME280;45241;49.768;8.636;2023-04-16T06:30:51;100430.81;;;11.34;100.00
59435;BME280;45241;49.768;8.636;2023-04-16T06:33:16;100426.16;;;11.06;100.00
59435;BME280;45241;49.768;8.636;2023-04-16T06:35:42;100425.56;;;11.26;100.00
59435;BME280;45241;49.768;8.636;2023-04-16T06:38:07;100428.78;;;11.21;100.00
59435;BME280;45241;49.768;8.636;2023-04-16T06:40:32;100427.44;;;10.89;100.00
59435;BME280;45241;49.768;8.636;2023-04-16T06:42:57;100425.16;;;11.07;100.00
59435;BME280;45241;49.768;8.636;2023-04-16T06:45:23;100426.06;;;11.14;100.00
59435;BME280;45241;49.768;8.636;2023-04-16T06:47:48;100431.16;;;11.09;100.00
59435;BME280;45241;49.768;8.636;2023-04-16T06:50:13;100436.22;;;11.19;100.00
59435;BME280;45241;49.768;8.636;2023-04-16T06:52:39;100430.47;;;11.22;100.00
59435;BME280;45241;49.768;8.636;2023-04-16T06:55:04;100435.72;;;11.30;100.00
59435;BME280;45241;49.768;8.636;2023-04-16T06:57:32;100436.06;;;11.42;100.00
59435;BME280;45241;49.768;8.636;2023-04-16T06:59:57;100445.34;;;11.39;100.00
59435;BME280;45241;49.768;8.636;2023-04-16T07:02:22;100444.03;;;11.35;100.00
59435;BME280;45241;49.768;8.636;2023-04-16T07:04:48;100447.44;;;11.08;100.00
59435;BME280;45241;49.768;8.636;2023-04-16T07:07:13;100446.00;;;11.27;100.00
59435;BME280;45241;49.768;8.636;2023-04-16T07:09:38;100453.44;;;11.10;100.00
59435;BME280;45241;49.768;8.636;2023-04-16T07:12:03;100450.63;;;11.33;100.00
59435;BME280;45241;49.768;8.636;2023-04-16T07:14:28;100446.03;;;11.12;100.00
59435;BME280;45241;49.768;8.636;2023-04-16T07:16:54;100449.13;;;11.30;100.00
59435;BME280;45241;49.768;8.636;2023-04-16T07:19:19;100448.75;;;10.97;100.00
59435;BME280;45241;49.768;8.636;2023-04-16T07:21:45;100445.47;;;11.17;100.00
59435;BME280;45241;49.768;8.636;2023-04-16T07:24:10;100444.03;;;11.35;100.00
59435;BME280;45241;49.768;8.636;2023-04-16T07:26:35;100447.97;;;11.18;100.00
59435;BME280;45241;49.768;8.636;2023-04-16T07:29:01;100446.03;;;11.48;100.00
59435;BME280;45241;49.768;8.636;2023-04-16T07:31:26;100451.38;;;10.91;100.00
59435;BME280;45241;49.768;8.636;2023-04-16T07:33:51;100452.09;;;11.35;100.00
59435;BME280;45241;49.768;8.636;2023-04-16T07:36:16;100454.81;;;11.21;100.00
59435;BME280;45241;49.768;8.636;2023-04-16T07:38:41;100461.88;;;11.07;100.00
59435;BME280;45241;49.768;8.636;2023-04-16T07:41:07;100463.16;;;10.75;100.00
59435;BME280;45241;49.768;8.636;2023-04-16T07:43:32;100469.63;;;10.66;100.00
59435;BME280;45241;49.768;8.636;2023-04-16T07:45:57;100467.84;;;10.73;100.00
59435;BME280;45241;49.768;8.636;2023-04-16T07:48:22;100469.47;;;11.03;100.00
59435;BME280;45241;49.768;8.636;2023-04-16T07:50:47;100477.38;;;10.75;100.00
59435;BME280;45241;49.768;8.636;2023-04-16T07:53:14;100469.41;;;10.82;100.00
59435;BME280;45241;49.768;8.636;2023-04-16T07:55:39;100476.19;;;10.78;100.00
59435;BME280;45241;49.768;8.636;2023-04-16T07:58:04;100475.31;;;10.92;100.00
59435;BME280;45241;49.768;8.636;2023-04-16T08:00:31;100484.41;;;11.12;100.00
59435;BME280;45241;49.768;8.636;2023-04-16T08:02:57;100480.50;;;10.94;100.00
59435;BME280;45241;49.768;8.636;2023-04-16T08:05:22;100490.66;;;10.98;100.00
59435;BME280;45241;49.768;8.636;2023-04-16T08:07:47;100483.50;;;11.20;100.00
59435;BME280;45241;49.768;8.636;2023-04-16T08:10:12;100491.28;;;11.15;100.00
59435;BME280;45241;49.768;8.636;2023-04-16T08:12:38;100492.84;;;11.09;100.00
59435;BME280;45241;49.768;8.636;2023-04-16T08:15:03;100492.53;;;10.83;100.00
59435;BME280;45241;49.768;8.636;2023-04-16T08:17:29;100494.81;;;10.86;100.00
59435;BME280;45241;49.768;8.636;2023-04-16T08:19:54;100496.78;;;10.92;100.00
59435;BME280;45241;49.768;8.636;2023-04-16T08:22:19;100499.84;;;10.89;100.00
59435;BME280;45241;49.768;8.636;2023-04-16T08:24:44;100506.22;;;10.88;100.00
59435;BME280;45241;49.768;8.636;2023-04-16T08:27:10;100505.22;;;10.89;100.00
59435;BME280;45241;49.768;8.636;2023-04-16T08:29:36;100504.75;;;10.71;100.00
59435;BME280;45241;49.768;8.636;2023-04-16T08:32:01;100511.41;;;10.75;100.00
59435;BME280;45241;49.768;8.636;2023-04-16T08:34:26;100509.59;;;11.11;100.00
59435;BME280;45241;49.768;8.636;2023-04-16T08:36:51;100518.22;;;11.07;100.00
59435;BME280;45241;49.768;8.636;2023-04-16T08:39:17;100516.38;;;10.93;100.00
59435;BME280;45241;49.768;8.636;2023-04-16T08:41:43;100513.41;;;11.02;100.00
59435;BME280;45241;49.768;8.636;2023-04-16T08:44:13;100513.53;;;10.79;100.00
59435;BME280;45241;49.768;8.636;2023-04-16T08:46:42;100518.06;;;10.79;100.00
59435;BME280;45241;49.768;8.636;2023-04-16T08:49:08;100520.28;;;10.90;100.00
59435;BME280;45241;49.768;8.636;2023-04-16T08:51:36;100519.81;;;10.87;100.00
59435;BME280;45241;49.768;8.636;2023-04-16T08:54:07;100524.84;;;11.26;100.00
59435;BME280;45241;49.768;8.636;2023-04-16T08:56:35;100532.03;;;10.89;100.00
59435;BME280;45241;49.768;8.636;2023-04-16T08:59:00;100526.19;;;10.71;100.00
59435;BME280;45241;49.768;8.636;2023-04-16T09:01:29;100538.84;;;11.06;100.00
59435;BME280;45241;49.768;8.636;2023-04-16T09:03:54;100531.47;;;10.79;100.00
59435;BME280;45241;49.768;8.636;2023-04-16T09:06:20;100529.16;;;10.76;100.00
59435;BME280;45241;49.768;8.636;2023-04-16T09:08:45;100529.34;;;10.89;100.00
59435;BME280;45241;49.768;8.636;2023-04-16T09:11:12;100526.91;;;11.09;100.00
59435;BME280;45241;49.768;8.636;2023-04-16T09:13:37;100533.38;;;11.14;100.00
59435;BME280;45241;49.768;8.636;2023-04-16T09:16:03;100530.78;;;11.21;100.00
59435;BME280;45241;49.768;8.636;2023-04-16T09:18:29;100536.88;;;11.30;100.00
59435;BME280;45241;49.768;8.636;2023-04-16T09:20:55;100538.91;;;11.28;100.00
59435;BME280;45241;49.768;8.636;2023-04-16T09:23:21;100543.81;;;11.24;100.00
59435;BME280;45241;49.768;8.636;2023-04-16T09:25:46;100540.75;;;11.12;100.00
59435;BME280;45241;49.768;8.636;2023-04-16T09:28:11;100540.00;;;11.48;100.00
59435;BME280;45241;49.768;8.636;2023-04-16T09:30:37;100545.63;;;11.53;100.00
59435;BME280;45241;49.768;8.636;2023-04-16T09:33:12;100552.03;;;11.52;100.00
59435;BME280;45241;49.768;8.636;2023-04-16T09:35:44;100548.91;;;11.70;100.00
59435;BME280;45241;49.768;8.636;2023-04-16T09:38:10;100551.16;;;11.66;100.00
59435;BME280;45241;49.768;8.636;2023-04-16T09:40:35;100553.56;;;11.61;100.00
59435;BME280;45241;49.768;8.636;2023-04-16T09:43:02;100551.50;;;11.42;100.00
59435;BME280;45241;49.768;8.636;2023-04-16T09:45:33;100552.53;;;11.62;100.00
59435;BME280;45241;49.768;8.636;2023-04-16T09:48:11;100554.28;;;11.70;100.00
59435;BME280;45241;49.768;8.636;2023-04-16T09:50:36;100550.47;;;11.64;100.00
59435;BME280;45241;49.768;8.636;2023-04-16T09:53:02;100559.75;;;11.62;100.00
59435;BME280;45241;49.768;8.636;2023-04-16T09:55:27;100556.38;;;11.74;100.00
59435;BME280;45241;49.768;8.636;2023-04-16T09:57:59;100561.75;;;11.74;100.00
59435;BME280;45241;49.768;8.636;2023-04-16T10:00:24;100564.44;;;11.53;100.00
59435;BME280;45241;49.768;8.636;2023-04-16T10:02:52;100561.00;;;11.81;100.00
59435;BME280;45241;49.768;8.636;2023-04-16T10:05:26;100563.06;;;11.79;100.00
59435;BME280;45241;49.768;8.636;2023-04-16T10:07:51;100566.44;;;11.87;100.00
59435;BME280;45241;49.768;8.636;2023-04-16T10:10:17;100563.09;;;11.85;100.00
59435;BME280;45241;49.768;8.636;2023-04-16T10:12:42;100563.94;;;11.86;100.00
59435;BME280;45241;49.768;8.636;2023-04-16T10:15:07;100569.59;;;11.91;100.00
59435;BME280;45241;49.768;8.636;2023-04-16T10:17:33;100566.50;;;11.94;100.00
59435;BME280;45241;49.768;8.636;2023-04-16T10:19:59;100572.28;;;11.91;100.00
59435;BME280;45241;49.768;8.636;2023-04-16T10:22:25;100572.06;;;11.92;100.00
59435;BME280;45241;49.768;8.636;2023-04-16T10:24:50;100575.13;;;11.89;100.00
59435;BME280;45241;49.768;8.636;2023-04-16T10:27:16;100579.31;;;11.92;100.00
59435;BME280;45241;49.768;8.636;2023-04-16T10:29:43;100575.91;;;12.05;100.00
59435;BME280;45241;49.768;8.636;2023-04-16T10:32:08;100579.78;;;12.02;100.00
59435;BME280;45241;49.768;8.636;2023-04-16T10:34:34;100584.59;;;12.07;100.00
59435;BME280;45241;49.768;8.636;2023-04-16T10:36:59;100579.28;;;12.13;100.00
59435;BME280;45241;49.768;8.636;2023-04-16T10:39:26;100584.03;;;12.11;100.00
59435;BME280;45241;49.768;8.636;2023-04-16T10:42:05;100585.88;;;12.11;100.00
59435;BME280;45241;49.768;8.636;2023-04-16T10:44:30;100585.69;;;12.12;100.00
59435;BME280;45241;49.768;8.636;2023-04-16T10:46:56;100586.31;;;12.14;100.00
59435;BME280;45241;49.768;8.636;2023-04-16T10:49:23;100583.06;;;12.19;100.00
59435;BME280;45241;49.768;8.636;2023-04-16T10:51:55;100584.97;;;12.25;100.00
59435;BME280;45241;49.768;8.636;2023-04-16T10:54:25;100577.06;;;12.17;100.00
59435;BME280;45241;49.768;8.636;2023-04-16T10:56:50;100565.75;;;12.28;100.00
59435;BME280;45241;49.768;8.636;2023-04-16T10:59:19;100583.25;;;12.17;100.00
59435;BME280;45241;49.768;8.636;2023-04-16T11:01:46;100580.50;;;12.32;100.00
59435;BME280;45241;49.768;8.636;2023-04-16T11:12:11;100578.63;;;12.32;100.00
59435;BME280;45241;49.768;8.636;2023-04-16T11:14:36;100583.31;;;12.24;100.00
59435;BME280;45241;49.768;8.636;2023-04-16T11:17:02;100581.44;;;12.24;100.00
59435;BME280;45241;49.768;8.636;2023-04-16T11:19:27;100584.44;;;12.36;100.00
59435;BME280;45241;49.768;8.636;2023-04-16T11:21:53;100582.78;;;12.35;100.00
59435;BME280;45241;49.768;8.636;2023-04-16T11:24:18;100585.78;;;12.47;100.00
59435;BME280;45241;49.768;8.636;2023-04-16T11:26:43;100581.03;;;12.49;100.00
59435;BME280;45241;49.768;8.636;2023-04-16T11:29:12;100584.34;;;12.51;100.00
59435;BME280;45241;49.768;8.636;2023-04-16T11:31:38;100586.22;;;12.50;100.00
59435;BME280;45241;49.768;8.636;2023-04-16T11:34:03;100581.94;;;12.56;100.00
59435;BME280;45241;49.768;8.636;2023-04-16T11:36:45;100580.25;;;12.55;100.00
59435;BME280;45241;49.768;8.636;2023-04-16T11:39:10;100586.91;;;12.59;100.00
59435;BME280;45241;49.768;8.636;2023-04-16T11:41:45;100584.75;;;12.48;100.00
59435;BME280;45241;49.768;8.636;2023-04-16T11:44:21;100593.22;;;12.45;100.00
59435;BME280;45241;49.768;8.636;2023-04-16T11:46:47;100587.41;;;12.69;100.00
59435;BME280;45241;49.768;8.636;2023-04-16T11:49:12;100585.34;;;12.71;100.00
59435;BME280;45241;49.768;8.636;2023-04-16T11:51:38;100580.25;;;12.55;100.00
59435;BME280;45241;49.768;8.636;2023-04-16T11:54:03;100586.94;;;12.38;100.00
59435;BME280;45241;49.768;8.636;2023-04-16T11:56:29;100586.81;;;12.46;100.00
59435;BME280;45241;49.768;8.636;2023-04-16T11:59:04;100587.44;;;12.48;100.00
59435;BME280;45241;49.768;8.636;2023-04-16T12:01:30;100587.97;;;12.65;100.00
59435;BME280;45241;49.768;8.636;2023-04-16T12:03:59;100590.97;;;12.48;100.00
59435;BME280;45241;49.768;8.636;2023-04-16T12:06:25;100588.47;;;12.47;100.00
59435;BME280;45241;49.768;8.636;2023-04-16T12:08:51;100583.59;;;12.57;100.00
59435;BME280;45241;49.768;8.636;2023-04-16T12:11:16;100589.84;;;12.64;100.00
59435;BME280;45241;49.768;8.636;2023-04-16T12:13:41;100590.81;;;12.56;100.00
59435;BME280;45241;49.768;8.636;2023-04-16T12:16:17;100586.72;;;12.60;100.00
59435;BME280;45241;49.768;8.636;2023-04-16T12:18:58;100589.69;;;12.72;100.00
59435;BME280;45241;49.768;8.636;2023-04-16T12:21:34;100595.06;;;12.72;100.00
59435;BME280;45241;49.768;8.636;2023-04-16T12:23:59;100592.91;;;12.61;100.00
59435;BME280;45241;49.768;8.636;2023-04-16T12:26:25;100595.50;;;12.76;100.00
59435;BME280;45241;49.768;8.636;2023-04-16T12:28:50;100586.75;;;12.67;100.00
59435;BME280;45241;49.768;8.636;2023-04-16T12:31:15;100597.31;;;12.69;100.00
59435;BME280;45241;49.768;8.636;2023-04-16T12:33:41;100589.22;;;12.69;100.00
59435;BME280;45241;49.768;8.636;2023-04-16T12:36:16;100591.09;;;12.68;100.00
59435;BME280;45241;49.768;8.636;2023-04-16T12:38:41;100594.06;;;12.80;100.00
59435;BME280;45241;49.768;8.636;2023-04-16T12:41:06;100595.78;;;12.87;100.00